sensor_id;sensor_type;location;lat;lon;timestamp;P1;durP1;ratioP1;P2;durP2;ratioP2
22995;SDS011;11664;49.774;8.650;2023-03-25T00:01:49;4.68;;;4.43;;
22995;SDS011;11664;49.774;8.650;2023-03-25T00:04:14;5.57;;;4.00;;
22995;SDS011;11664;49.774;8.650;2023-03-25T00:06:44;4.35;;;4.15;;
22995;SDS011;11664;49.774;8.650;2023-03-25T00:09:20;3.58;;;3.40;;
22995;SDS011;11664;49.774;8.650;2023-03-25T00:11:49;3.28;;;3.17;;
22995;SDS011;11664;49.774;8.650;2023-03-25T00:14:18;5.32;;;4.35;;
22995;SDS011;11664;49.774;8.650;2023-03-25T00:16:50;8.13;;;7.72;;
22995;SDS011;11664;49.774;8.650;2023-03-25T00:19:22;4.57;;;4.28;;
22995;SDS011;11664;49.774;8.650;2023-03-25T00:21:49;4.45;;;4.15;;
22995;SDS011;11664;49.774;8.650;2023-03-25T00:24:16;3.22;;;3.08;;
22995;SDS011;11664;49.774;8.650;2023-03-25T00:26:48;4.22;;;4.03;;
22995;SDS011;11664;49.774;8.650;2023-03-25T00:29:19;4.55;;;4.35;;
22995;SDS011;11664;49.774;8.650;2023-03-25T00:31:45;5.97;;;5.68;;
22995;SDS011;11664;49.774;8.650;2023-03-25T00:34:17;7.80;;;7.40;;
22995;SDS011;11664;49.774;8.650;2023-03-25T00:36:44;4.43;;;4.22;;
22995;SDS011;11664;49.774;8.650;2023-03-25T00:39:22;3.88;;;3.67;;
22995;SDS011;11664;49.774;8.650;2023-03-25T00:41:47;4.90;;;4.60;;
22995;SDS011;11664;49.774;8.650;2023-03-25T00:44:19;3.22;;;3.13;;
22995;SDS011;11664;49.774;8.650;2023-03-25T00:46:52;3.85;;;3.58;;
22995;SDS011;11664;49.774;8.650;2023-03-25T00:49:21;3.80;;;3.13;;
22995;SDS011;11664;49.774;8.650;2023-03-25T00:51:52;3.83;;;3.40;;
22995;SDS011;11664;49.774;8.650;2023-03-25T00:54:34;4.45;;;4.15;;
22995;SDS011;11664;49.774;8.650;2023-03-25T00:57:00;2.88;;;2.78;;
22995;SDS011;11664;49.774;8.650;2023-03-25T00:59:26;3.33;;;3.15;;
22995;SDS011;11664;49.774;8.650;2023-03-25T01:02:01;3.35;;;3.05;;
22995;SDS011;11664;49.774;8.650;2023-03-25T01:04:30;3.17;;;2.90;;
22995;SDS011;11664;49.774;8.650;2023-03-25T01:07:02;4.07;;;3.45;;
22995;SDS011;11664;49.774;8.650;2023-03-25T01:09:28;3.80;;;3.38;;
22995;SDS011;11664;49.774;8.650;2023-03-25T01:12:00;4.63;;;3.58;;
22995;SDS011;11664;49.774;8.650;2023-03-25T01:14:28;4.20;;;3.78;;
22995;SDS011;11664;49.774;8.650;2023-03-25T01:16:58;4.78;;;3.50;;
22995;SDS011;11664;49.774;8.650;2023-03-25T01:19:36;3.67;;;3.40;;
22995;SDS011;11664;49.774;8.650;2023-03-25T01:22:02;3.97;;;3.65;;
22995;SDS011;11664;49.774;8.650;2023-03-25T01:24:39;7.63;;;4.00;;
22995;SDS011;11664;49.774;8.650;2023-03-25T01:27:11;5.90;;;4.57;;
22995;SDS011;11664;49.774;8.650;2023-03-25T01:29:37;6.35;;;5.53;;
22995;SDS011;11664;49.774;8.650;2023-03-25T01:32:21;3.10;;;2.92;;
22995;SDS011;11664;49.774;8.650;2023-03-25T01:34:49;10.32;;;3.30;;
22995;SDS011;11664;49.774;8.650;2023-03-25T01:37:18;3.80;;;3.45;;
22995;SDS011;11664;49.774;8.650;2023-03-25T01:39:47;5.07;;;4.57;;
22995;SDS011;11664;49.774;8.650;2023-03-25T01:42:13;4.45;;;4.15;;
22995;SDS011;11664;49.774;8.650;2023-03-25T01:47:23;3.83;;;3.45;;
22995;SDS011;11664;49.774;8.650;2023-03-25T01:49:50;3.40;;;3.20;;
22995;SDS011;11664;49.774;8.650;2023-03-25T01:52:23;4.15;;;2.97;;
22995;SDS011;11664;49.774;8.650;2023-03-25T01:57:35;3.55;;;3.35;;
22995;SDS011;11664;49.774;8.650;2023-03-25T02:02:34;5.00;;;3.05;;
22995;SDS011;11664;49.774;8.650;2023-03-25T02:05:20;4.13;;;3.78;;
22995;SDS011;11664;49.774;8.650;2023-03-25T02:07:53;5.82;;;4.15;;
22995;SDS011;11664;49.774;8.650;2023-03-25T02:10:21;5.22;;;4.75;;
22995;SDS011;11664;49.774;8.650;2023-03-25T02:12:47;5.25;;;4.95;;
22995;SDS011;11664;49.774;8.650;2023-03-25T02:15:22;5.55;;;4.78;;
22995;SDS011;11664;49.774;8.650;2023-03-25T02:38:41;7.75;;;7.38;;
22995;SDS011;11664;49.774;8.650;2023-03-25T02:44:53;9.10;;;8.00;;
22995;SDS011;11664;49.774;8.650;2023-03-25T02:50:39;8.70;;;8.30;;
22995;SDS011;11664;49.774;8.650;2023-03-25T02:53:29;11.57;;;11.02;;
22995;SDS011;11664;49.774;8.650;2023-03-25T02:56:07;13.68;;;12.63;;
22995;SDS011;11664;49.774;8.650;2023-03-25T02:58:39;7.88;;;7.47;;
22995;SDS011;11664;49.774;8.650;2023-03-25T03:01:05;19.88;;;18.85;;
22995;SDS011;11664;49.774;8.650;2023-03-25T03:03:34;9.93;;;9.45;;
22995;SDS011;11664;49.774;8.650;2023-03-25T03:06:06;6.85;;;6.55;;
22995;SDS011;11664;49.774;8.650;2023-03-25T03:22:38;14.75;;;13.93;;
22995;SDS011;11664;49.774;8.650;2023-03-25T03:28:16;8.48;;;8.07;;
22995;SDS011;11664;49.774;8.650;2023-03-25T03:30:53;13.80;;;13.10;;
22995;SDS011;11664;49.774;8.650;2023-03-25T03:33:54;8.18;;;7.57;;
22995;SDS011;11664;49.774;8.650;2023-03-25T03:36:26;7.05;;;6.65;;
22995;SDS011;11664;49.774;8.650;2023-03-25T03:41:49;4.78;;;4.40;;
22995;SDS011;11664;49.774;8.650;2023-03-25T03:44:36;5.13;;;4.82;;
22995;SDS011;11664;49.774;8.650;2023-03-25T03:47:11;4.05;;;3.85;;
22995;SDS011;11664;49.774;8.650;2023-03-25T03:49:50;8.10;;;7.57;;
22995;SDS011;11664;49.774;8.650;2023-03-25T03:52:24;28.58;;;27.05;;
22995;SDS011;11664;49.774;8.650;2023-03-25T04:00:47;12.73;;;12.02;;
22995;SDS011;11664;49.774;8.650;2023-03-25T04:07:16;8.77;;;8.23;;
22995;SDS011;11664;49.774;8.650;2023-03-25T04:12:29;11.48;;;10.88;;
22995;SDS011;11664;49.774;8.650;2023-03-25T04:14:59;8.20;;;7.47;;
22995;SDS011;11664;49.774;8.650;2023-03-25T04:17:33;15.45;;;14.40;;
22995;SDS011;11664;49.774;8.650;2023-03-25T04:20:02;19.65;;;18.52;;
22995;SDS011;11664;49.774;8.650;2023-03-25T04:22:35;5.25;;;4.95;;
22995;SDS011;11664;49.774;8.650;2023-03-25T04:25:05;4.55;;;4.25;;
22995;SDS011;11664;49.774;8.650;2023-03-25T04:27:40;10.13;;;9.63;;
22995;SDS011;11664;49.774;8.650;2023-03-25T04:30:13;5.53;;;5.13;;
22995;SDS011;11664;49.774;8.650;2023-03-25T04:33:00;4.22;;;4.03;;
22995;SDS011;11664;49.774;8.650;2023-03-25T04:35:29;7.75;;;6.15;;
22995;SDS011;11664;49.774;8.650;2023-03-25T04:38:04;6.38;;;5.97;;
22995;SDS011;11664;49.774;8.650;2023-03-25T04:40:33;5.70;;;5.20;;
22995;SDS011;11664;49.774;8.650;2023-03-25T04:42:58;7.00;;;6.60;;
22995;SDS011;11664;49.774;8.650;2023-03-25T04:45:30;12.80;;;11.98;;
22995;SDS011;11664;49.774;8.650;2023-03-25T04:48:00;18.23;;;17.33;;
22995;SDS011;11664;49.774;8.650;2023-03-25T04:50:36;25.77;;;24.23;;
22995;SDS011;11664;49.774;8.650;2023-03-25T04:53:04;33.55;;;31.83;;
22995;SDS011;11664;49.774;8.650;2023-03-25T04:55:32;11.55;;;10.73;;
22995;SDS011;11664;49.774;8.650;2023-03-25T04:57:58;20.73;;;19.55;;
22995;SDS011;11664;49.774;8.650;2023-03-25T05:00:47;7.65;;;7.03;;
22995;SDS011;11664;49.774;8.650;2023-03-25T05:03:15;12.50;;;11.90;;
22995;SDS011;11664;49.774;8.650;2023-03-25T05:06:09;21.58;;;20.40;;
22995;SDS011;11664;49.774;8.650;2023-03-25T05:08:35;17.07;;;15.73;;
22995;SDS011;11664;49.774;8.650;2023-03-25T05:11:00;18.58;;;17.42;;
22995;SDS011;11664;49.774;8.650;2023-03-25T05:13:36;10.43;;;9.82;;
22995;SDS011;11664;49.774;8.650;2023-03-25T05:16:11;11.48;;;10.82;;
22995;SDS011;11664;49.774;8.650;2023-03-25T05:21:27;10.30;;;9.70;;
22995;SDS011;11664;49.774;8.650;2023-03-25T05:24:08;14.55;;;13.82;;
22995;SDS011;11664;49.774;8.650;2023-03-25T05:26:46;14.07;;;13.13;;
22995;SDS011;11664;49.774;8.650;2023-03-25T05:29:22;7.37;;;6.83;;
22995;SDS011;11664;49.774;8.650;2023-03-25T05:31:47;4.47;;;4.18;;
22995;SDS011;11664;49.774;8.650;2023-03-25T05:34:13;9.13;;;8.57;;
22995;SDS011;11664;49.774;8.650;2023-03-25T05:36:47;8.07;;;7.68;;
22995;SDS011;11664;49.774;8.650;2023-03-25T05:39:13;7.00;;;6.60;;
22995;SDS011;11664;49.774;8.650;2023-03-25T05:41:41;6.20;;;5.35;;
22995;SDS011;11664;49.774;8.650;2023-03-25T05:44:24;9.50;;;8.73;;
22995;SDS011;11664;49.774;8.650;2023-03-25T05:46:50;10.50;;;9.88;;
22995;SDS011;11664;49.774;8.650;2023-03-25T05:49:28;5.07;;;4.72;;
22995;SDS011;11664;49.774;8.650;2023-03-25T05:51:53;4.82;;;4.53;;
22995;SDS011;11664;49.774;8.650;2023-03-25T05:54:28;6.00;;;5.60;;
22995;SDS011;11664;49.774;8.650;2023-03-25T05:56:54;6.93;;;5.60;;
22995;SDS011;11664;49.774;8.650;2023-03-25T05:59:20;5.32;;;5.03;;
22995;SDS011;11664;49.774;8.650;2023-03-25T06:01:45;6.50;;;5.93;;
22995;SDS011;11664;49.774;8.650;2023-03-25T06:04:17;4.35;;;4.13;;
22995;SDS011;11664;49.774;8.650;2023-03-25T06:06:55;4.55;;;4.30;;
22995;SDS011;11664;49.774;8.650;2023-03-25T06:09:24;5.35;;;4.90;;
22995;SDS011;11664;49.774;8.650;2023-03-25T06:11:49;7.50;;;5.22;;
22995;SDS011;11664;49.774;8.650;2023-03-25T06:14:20;5.07;;;4.32;;
22995;SDS011;11664;49.774;8.650;2023-03-25T06:16:49;4.50;;;3.63;;
22995;SDS011;11664;49.774;8.650;2023-03-25T06:19:21;6.38;;;6.05;;
22995;SDS011;11664;49.774;8.650;2023-03-25T06:21:50;6.47;;;6.15;;
22995;SDS011;11664;49.774;8.650;2023-03-25T06:24:16;4.68;;;4.28;;
22995;SDS011;11664;49.774;8.650;2023-03-25T06:26:44;7.75;;;3.97;;
22995;SDS011;11664;49.774;8.650;2023-03-25T06:29:10;4.47;;;4.28;;
22995;SDS011;11664;49.774;8.650;2023-03-25T06:31:41;5.28;;;4.78;;
22995;SDS011;11664;49.774;8.650;2023-03-25T06:34:10;5.03;;;4.68;;
22995;SDS011;11664;49.774;8.650;2023-03-25T06:36:51;5.78;;;4.38;;
22995;SDS011;11664;49.774;8.650;2023-03-25T06:39:22;9.27;;;6.15;;
22995;SDS011;11664;49.774;8.650;2023-03-25T06:41:50;8.60;;;6.18;;
22995;SDS011;11664;49.774;8.650;2023-03-25T06:44:22;3.95;;;3.75;;
22995;SDS011;11664;49.774;8.650;2023-03-25T06:49:48;5.50;;;4.47;;
22995;SDS011;11664;49.774;8.650;2023-03-25T06:52:14;4.85;;;4.45;;
22995;SDS011;11664;49.774;8.650;2023-03-25T06:54:40;3.88;;;3.55;;
22995;SDS011;11664;49.774;8.650;2023-03-25T06:57:06;4.75;;;4.45;;
22995;SDS011;11664;49.774;8.650;2023-03-25T06:59:32;5.85;;;5.45;;
22995;SDS011;11664;49.774;8.650;2023-03-25T07:02:03;4.85;;;4.40;;
22995;SDS011;11664;49.774;8.650;2023-03-25T07:04:44;4.43;;;3.72;;
22995;SDS011;11664;49.774;8.650;2023-03-25T07:07:19;4.38;;;4.03;;
22995;SDS011;11664;49.774;8.650;2023-03-25T07:09:57;5.05;;;4.55;;
22995;SDS011;11664;49.774;8.650;2023-03-25T07:12:28;11.73;;;4.85;;
22995;SDS011;11664;49.774;8.650;2023-03-25T07:14:57;6.30;;;4.90;;
22995;SDS011;11664;49.774;8.650;2023-03-25T07:17:23;9.70;;;4.03;;
22995;SDS011;11664;49.774;8.650;2023-03-25T07:19:49;4.95;;;3.38;;
22995;SDS011;11664;49.774;8.650;2023-03-25T07:22:17;7.60;;;3.47;;
22995;SDS011;11664;49.774;8.650;2023-03-25T07:24:49;6.18;;;3.75;;
22995;SDS011;11664;49.774;8.650;2023-03-25T07:27:20;5.93;;;3.55;;
22995;SDS011;11664;49.774;8.650;2023-03-25T07:29:45;8.23;;;4.00;;
22995;SDS011;11664;49.774;8.650;2023-03-25T07:32:14;10.30;;;4.10;;
22995;SDS011;11664;49.774;8.650;2023-03-25T07:34:39;7.13;;;5.30;;
22995;SDS011;11664;49.774;8.650;2023-03-25T07:37:05;3.95;;;3.67;;
22995;SDS011;11664;49.774;8.650;2023-03-25T07:39:36;4.40;;;3.60;;
22995;SDS011;11664;49.774;8.650;2023-03-25T07:42:02;11.27;;;4.95;;
22995;SDS011;11664;49.774;8.650;2023-03-25T07:44:36;8.75;;;4.47;;
22995;SDS011;11664;49.774;8.650;2023-03-25T07:47:08;7.82;;;4.22;;
22995;SDS011;11664;49.774;8.650;2023-03-25T07:49:33;7.20;;;5.35;;
22995;SDS011;11664;49.774;8.650;2023-03-25T07:52:14;9.70;;;4.63;;
22995;SDS011;11664;49.774;8.650;2023-03-25T07:54:43;5.70;;;3.83;;
22995;SDS011;11664;49.774;8.650;2023-03-25T07:57:23;5.60;;;4.53;;
22995;SDS011;11664;49.774;8.650;2023-03-25T08:03:14;7.88;;;3.53;;
22995;SDS011;11664;49.774;8.650;2023-03-25T08:05:44;3.88;;;3.50;;
22995;SDS011;11664;49.774;8.650;2023-03-25T08:11:07;7.43;;;3.50;;
22995;SDS011;11664;49.774;8.650;2023-03-25T08:13:57;3.40;;;3.10;;
22995;SDS011;11664;49.774;8.650;2023-03-25T08:16:26;6.15;;;3.63;;
22995;SDS011;11664;49.774;8.650;2023-03-25T08:19:03;4.53;;;3.53;;
22995;SDS011;11664;49.774;8.650;2023-03-25T08:21:29;6.97;;;3.88;;
22995;SDS011;11664;49.774;8.650;2023-03-25T08:23:57;8.18;;;3.80;;
22995;SDS011;11664;49.774;8.650;2023-03-25T08:26:26;9.33;;;3.60;;
22995;SDS011;11664;49.774;8.650;2023-03-25T08:28:59;6.43;;;5.50;;
22995;SDS011;11664;49.774;8.650;2023-03-25T08:31:27;7.05;;;5.28;;
22995;SDS011;11664;49.774;8.650;2023-03-25T08:34:01;5.88;;;4.57;;
22995;SDS011;11664;49.774;8.650;2023-03-25T08:36:29;7.07;;;4.82;;
22995;SDS011;11664;49.774;8.650;2023-03-25T08:38:55;5.85;;;3.88;;
22995;SDS011;11664;49.774;8.650;2023-03-25T08:41:20;4.90;;;3.33;;
22995;SDS011;11664;49.774;8.650;2023-03-25T08:43:46;9.45;;;4.57;;
22995;SDS011;11664;49.774;8.650;2023-03-25T08:46:21;10.07;;;3.72;;
22995;SDS011;11664;49.774;8.650;2023-03-25T08:48:47;8.82;;;4.00;;
22995;SDS011;11664;49.774;8.650;2023-03-25T08:51:21;4.85;;;3.88;;
22995;SDS011;11664;49.774;8.650;2023-03-25T08:53:50;7.65;;;4.82;;
22995;SDS011;11664;49.774;8.650;2023-03-25T08:56:23;7.72;;;5.45;;
22995;SDS011;11664;49.774;8.650;2023-03-25T09:02:11;5.27;;;4.77;;
22995;SDS011;11664;49.774;8.650;2023-03-25T09:04:37;5.15;;;4.45;;
22995;SDS011;11664;49.774;8.650;2023-03-25T09:07:08;7.40;;;3.95;;
22995;SDS011;11664;49.774;8.650;2023-03-25T09:09:40;4.83;;;3.40;;
22995;SDS011;11664;49.774;8.650;2023-03-25T09:12:15;8.38;;;6.13;;
22995;SDS011;11664;49.774;8.650;2023-03-25T09:14:47;4.60;;;3.88;;
22995;SDS011;11664;49.774;8.650;2023-03-25T09:17:15;6.38;;;3.78;;
22995;SDS011;11664;49.774;8.650;2023-03-25T09:19:47;5.13;;;3.28;;
22995;SDS011;11664;49.774;8.650;2023-03-25T09:22:13;5.28;;;4.43;;
22995;SDS011;11664;49.774;8.650;2023-03-25T09:24:39;9.27;;;7.40;;
22995;SDS011;11664;49.774;8.650;2023-03-25T09:27:10;8.02;;;7.30;;
22995;SDS011;11664;49.774;8.650;2023-03-25T09:29:39;6.63;;;6.10;;
22995;SDS011;11664;49.774;8.650;2023-03-25T09:32:05;6.90;;;4.20;;
22995;SDS011;11664;49.774;8.650;2023-03-25T09:34:37;6.88;;;3.78;;
22995;SDS011;11664;49.774;8.650;2023-03-25T09:37:05;3.40;;;3.10;;
22995;SDS011;11664;49.774;8.650;2023-03-25T09:39:46;4.03;;;3.60;;
22995;SDS011;11664;49.774;8.650;2023-03-25T09:50:59;5.43;;;3.75;;
22995;SDS011;11664;49.774;8.650;2023-03-25T09:56:37;5.35;;;4.82;;
22995;SDS011;11664;49.774;8.650;2023-03-25T10:04:58;4.65;;;4.15;;
22995;SDS011;11664;49.774;8.650;2023-03-25T10:07:43;3.78;;;3.45;;
22995;SDS011;11664;49.774;8.650;2023-03-25T10:19:25;8.93;;;3.45;;
22995;SDS011;11664;49.774;8.650;2023-03-25T10:25:38;3.63;;;2.95;;
22995;SDS011;11664;49.774;8.650;2023-03-25T10:28:26;4.40;;;3.17;;
22995;SDS011;11664;49.774;8.650;2023-03-25T10:31:04;7.45;;;3.72;;
22995;SDS011;11664;49.774;8.650;2023-03-25T10:36:13;4.32;;;4.03;;
22995;SDS011;11664;49.774;8.650;2023-03-25T10:38:47;4.28;;;3.90;;
22995;SDS011;11664;49.774;8.650;2023-03-25T10:41:25;4.85;;;4.38;;
22995;SDS011;11664;49.774;8.650;2023-03-25T10:43:57;7.30;;;5.85;;
22995;SDS011;11664;49.774;8.650;2023-03-25T10:49:26;5.63;;;4.55;;
22995;SDS011;11664;49.774;8.650;2023-03-25T10:51:54;4.38;;;3.83;;
22995;SDS011;11664;49.774;8.650;2023-03-25T10:57:29;5.80;;;5.30;;
22995;SDS011;11664;49.774;8.650;2023-03-25T11:00:05;4.45;;;3.83;;
22995;SDS011;11664;49.774;8.650;2023-03-25T11:02:44;6.70;;;3.72;;
22995;SDS011;11664;49.774;8.650;2023-03-25T11:05:15;3.65;;;2.97;;
22995;SDS011;11664;49.774;8.650;2023-03-25T11:07:45;3.70;;;2.78;;
22995;SDS011;11664;49.774;8.650;2023-03-25T11:13:03;5.18;;;3.13;;
22995;SDS011;11664;49.774;8.650;2023-03-25T11:15:37;3.22;;;2.70;;
22995;SDS011;11664;49.774;8.650;2023-03-25T11:18:23;3.90;;;3.70;;
22995;SDS011;11664;49.774;8.650;2023-03-25T11:20:54;3.05;;;2.95;;
22995;SDS011;11664;49.774;8.650;2023-03-25T11:23:32;4.82;;;4.10;;
22995;SDS011;11664;49.774;8.650;2023-03-25T11:26:12;3.53;;;2.83;;
22995;SDS011;11664;49.774;8.650;2023-03-25T11:28:48;4.72;;;3.90;;
22995;SDS011;11664;49.774;8.650;2023-03-25T11:31:22;3.00;;;2.80;;
22995;SDS011;11664;49.774;8.650;2023-03-25T11:45:33;10.18;;;9.57;;
22995;SDS011;11664;49.774;8.650;2023-03-25T11:51:03;4.07;;;3.63;;
22995;SDS011;11664;49.774;8.650;2023-03-25T11:53:35;3.80;;;3.60;;
22995;SDS011;11664;49.774;8.650;2023-03-25T11:56:09;4.10;;;3.90;;
22995;SDS011;11664;49.774;8.650;2023-03-25T11:58:41;4.53;;;4.32;;
22995;SDS011;11664;49.774;8.650;2023-03-25T12:04:06;6.80;;;6.20;;
22995;SDS011;11664;49.774;8.650;2023-03-25T12:09:25;5.47;;;4.97;;
22995;SDS011;11664;49.774;8.650;2023-03-25T12:12:16;5.75;;;5.30;;
22995;SDS011;11664;49.774;8.650;2023-03-25T12:15:17;5.07;;;4.35;;
22995;SDS011;11664;49.774;8.650;2023-03-25T12:18:27;3.80;;;3.55;;
22995;SDS011;11664;49.774;8.650;2023-03-25T12:38:59;6.03;;;4.78;;
22995;SDS011;11664;49.774;8.650;2023-03-25T13:02:14;3.20;;;2.92;;
22995;SDS011;11664;49.774;8.650;2023-03-25T13:07:43;3.67;;;3.38;;
22995;SDS011;11664;49.774;8.650;2023-03-25T13:10:42;3.28;;;3.08;;
22995;SDS011;11664;49.774;8.650;2023-03-25T13:13:25;4.03;;;3.35;;
22995;SDS011;11664;49.774;8.650;2023-03-25T13:33:05;3.13;;;2.92;;
22995;SDS011;11664;49.774;8.650;2023-03-25T13:45:16;5.20;;;4.78;;
22995;SDS011;11664;49.774;8.650;2023-03-25T13:47:57;7.00;;;6.45;;
22995;SDS011;11664;49.774;8.650;2023-03-25T13:50:53;4.40;;;3.00;;
22995;SDS011;11664;49.774;8.650;2023-03-25T13:59:17;3.95;;;3.58;;
22995;SDS011;11664;49.774;8.650;2023-03-25T14:08:26;4.63;;;4.20;;
22995;SDS011;11664;49.774;8.650;2023-03-25T14:16:29;3.28;;;3.00;;
22995;SDS011;11664;49.774;8.650;2023-03-25T14:19:06;4.90;;;4.57;;
22995;SDS011;11664;49.774;8.650;2023-03-25T14:21:46;4.90;;;4.43;;
22995;SDS011;11664;49.774;8.650;2023-03-25T14:27:21;3.58;;;3.38;;
22995;SDS011;11664;49.774;8.650;2023-03-25T14:33:10;2.50;;;2.40;;
22995;SDS011;11664;49.774;8.650;2023-03-25T14:35:46;3.10;;;2.90;;
22995;SDS011;11664;49.774;8.650;2023-03-25T14:44:24;3.85;;;3.65;;
22995;SDS011;11664;49.774;8.650;2023-03-25T14:52:41;4.22;;;3.92;;
22995;SDS011;11664;49.774;8.650;2023-03-25T15:01:04;7.85;;;7.10;;
22995;SDS011;11664;49.774;8.650;2023-03-25T15:03:34;9.88;;;9.32;;
22995;SDS011;11664;49.774;8.650;2023-03-25T15:06:07;2.92;;;2.83;;
22995;SDS011;11664;49.774;8.650;2023-03-25T15:08:37;3.75;;;3.55;;
22995;SDS011;11664;49.774;8.650;2023-03-25T15:11:30;4.35;;;4.05;;
22995;SDS011;11664;49.774;8.650;2023-03-25T15:14:02;5.97;;;4.18;;
22995;SDS011;11664;49.774;8.650;2023-03-25T15:19:25;5.13;;;4.70;;
22995;SDS011;11664;49.774;8.650;2023-03-25T15:24:48;4.90;;;4.60;;
22995;SDS011;11664;49.774;8.650;2023-03-25T15:27:26;4.82;;;4.40;;
22995;SDS011;11664;49.774;8.650;2023-03-25T15:33:38;3.38;;;3.10;;
22995;SDS011;11664;49.774;8.650;2023-03-25T15:42:16;4.28;;;3.88;;
22995;SDS011;11664;49.774;8.650;2023-03-25T15:56:48;6.43;;;5.93;;
22995;SDS011;11664;49.774;8.650;2023-03-25T16:01:42;6.50;;;5.93;;
22995;SDS011;11664;49.774;8.650;2023-03-25T16:04:29;5.63;;;5.22;;
22995;SDS011;11664;49.774;8.650;2023-03-25T16:07:03;3.60;;;3.30;;
22995;SDS011;11664;49.774;8.650;2023-03-25T16:09:37;3.58;;;3.28;;
22995;SDS011;11664;49.774;8.650;2023-03-25T16:12:16;6.82;;;5.15;;
22995;SDS011;11664;49.774;8.650;2023-03-25T16:14:45;4.88;;;3.13;;
22995;SDS011;11664;49.774;8.650;2023-03-25T16:17:25;3.33;;;2.95;;
22995;SDS011;11664;49.774;8.650;2023-03-25T16:19:57;5.47;;;5.18;;
22995;SDS011;11664;49.774;8.650;2023-03-25T16:23:16;6.20;;;3.80;;
22995;SDS011;11664;49.774;8.650;2023-03-25T16:25:50;5.65;;;3.58;;
22995;SDS011;11664;49.774;8.650;2023-03-25T16:28:25;7.20;;;4.60;;
22995;SDS011;11664;49.774;8.650;2023-03-25T16:31:05;4.68;;;4.30;;
22995;SDS011;11664;49.774;8.650;2023-03-25T16:33:59;9.60;;;9.00;;
22995;SDS011;11664;49.774;8.650;2023-03-25T16:36:28;3.85;;;3.53;;
22995;SDS011;11664;49.774;8.650;2023-03-25T16:39:02;5.90;;;3.47;;
22995;SDS011;11664;49.774;8.650;2023-03-25T16:41:44;4.13;;;3.90;;
22995;SDS011;11664;49.774;8.650;2023-03-25T16:44:12;3.53;;;3.15;;
22995;SDS011;11664;49.774;8.650;2023-03-25T16:46:41;3.28;;;3.00;;
22995;SDS011;11664;49.774;8.650;2023-03-25T16:49:07;3.13;;;2.92;;
22995;SDS011;11664;49.774;8.650;2023-03-25T16:51:39;5.32;;;3.10;;
22995;SDS011;11664;49.774;8.650;2023-03-25T16:54:09;3.50;;;3.30;;
22995;SDS011;11664;49.774;8.650;2023-03-25T16:56:47;5.57;;;3.72;;
22995;SDS011;11664;49.774;8.650;2023-03-25T16:59:31;8.18;;;6.55;;
22995;SDS011;11664;49.774;8.650;2023-03-25T17:02:10;8.40;;;7.68;;
22995;SDS011;11664;49.774;8.650;2023-03-25T17:04:48;8.70;;;8.10;;
22995;SDS011;11664;49.774;8.650;2023-03-25T17:07:17;5.78;;;5.28;;
22995;SDS011;11664;49.774;8.650;2023-03-25T17:09:56;4.65;;;4.22;;
22995;SDS011;11664;49.774;8.650;2023-03-25T17:12:29;4.80;;;4.38;;
22995;SDS011;11664;49.774;8.650;2023-03-25T17:15:04;4.70;;;4.32;;
22995;SDS011;11664;49.774;8.650;2023-03-25T17:20:14;6.30;;;5.70;;
22995;SDS011;11664;49.774;8.650;2023-03-25T17:22:54;9.65;;;9.05;;
22995;SDS011;11664;49.774;8.650;2023-03-25T17:25:35;8.70;;;8.10;;
22995;SDS011;11664;49.774;8.650;2023-03-25T17:33:57;7.25;;;6.72;;
22995;SDS011;11664;49.774;8.650;2023-03-25T17:36:32;7.53;;;7.03;;
22995;SDS011;11664;49.774;8.650;2023-03-25T17:41:50;10.20;;;9.48;;
22995;SDS011;11664;49.774;8.650;2023-03-25T17:44:35;6.47;;;6.07;;
22995;SDS011;11664;49.774;8.650;2023-03-25T17:47:06;7.28;;;6.82;;
22995;SDS011;11664;49.774;8.650;2023-03-25T17:49:36;3.47;;;3.17;;
22995;SDS011;11664;49.774;8.650;2023-03-25T17:52:01;2.78;;;2.65;;
22995;SDS011;11664;49.774;8.650;2023-03-25T17:54:27;3.70;;;3.45;;
22995;SDS011;11664;49.774;8.650;2023-03-25T17:56:59;3.13;;;3.00;;
22995;SDS011;11664;49.774;8.650;2023-03-25T17:59:33;3.53;;;3.33;;
22995;SDS011;11664;49.774;8.650;2023-03-25T18:01:59;3.03;;;2.92;;
22995;SDS011;11664;49.774;8.650;2023-03-25T18:04:31;2.80;;;2.60;;
22995;SDS011;11664;49.774;8.650;2023-03-25T18:06:59;2.63;;;2.45;;
22995;SDS011;11664;49.774;8.650;2023-03-25T18:09:27;2.80;;;2.70;;
22995;SDS011;11664;49.774;8.650;2023-03-25T18:11:55;2.78;;;2.67;;
22995;SDS011;11664;49.774;8.650;2023-03-25T18:14:29;3.30;;;3.20;;
22995;SDS011;11664;49.774;8.650;2023-03-25T18:16:54;3.20;;;3.10;;
22995;SDS011;11664;49.774;8.650;2023-03-25T18:19:34;3.42;;;3.33;;
22995;SDS011;11664;49.774;8.650;2023-03-25T18:22:05;5.07;;;4.82;;
22995;SDS011;11664;49.774;8.650;2023-03-25T18:24:32;5.38;;;5.00;;
22995;SDS011;11664;49.774;8.650;2023-03-25T18:27:04;3.90;;;3.70;;
22995;SDS011;11664;49.774;8.650;2023-03-25T18:29:30;3.85;;;3.55;;
22995;SDS011;11664;49.774;8.650;2023-03-25T18:31:56;3.55;;;3.30;;
22995;SDS011;11664;49.774;8.650;2023-03-25T18:34:22;3.22;;;3.10;;
22995;SDS011;11664;49.774;8.650;2023-03-25T18:36:52;5.85;;;3.33;;
22995;SDS011;11664;49.774;8.650;2023-03-25T18:39:25;3.75;;;3.22;;
22995;SDS011;11664;49.774;8.650;2023-03-25T18:41:54;3.67;;;3.47;;
22995;SDS011;11664;49.774;8.650;2023-03-25T18:44:23;3.22;;;3.03;;
22995;SDS011;11664;49.774;8.650;2023-03-25T18:46:57;3.90;;;3.60;;
22995;SDS011;11664;49.774;8.650;2023-03-25T18:49:23;2.90;;;2.80;;
22995;SDS011;11664;49.774;8.650;2023-03-25T18:52:07;3.40;;;3.20;;
22995;SDS011;11664;49.774;8.650;2023-03-25T18:54:41;3.33;;;3.13;;
22995;SDS011;11664;49.774;8.650;2023-03-25T18:57:13;3.75;;;3.47;;
22995;SDS011;11664;49.774;8.650;2023-03-25T18:59:41;3.05;;;2.90;;
22995;SDS011;11664;49.774;8.650;2023-03-25T19:02:07;5.68;;;5.38;;
22995;SDS011;11664;49.774;8.650;2023-03-25T19:04:32;4.82;;;2.90;;
22995;SDS011;11664;49.774;8.650;2023-03-25T19:07:00;3.28;;;3.08;;
22995;SDS011;11664;49.774;8.650;2023-03-25T19:09:28;3.45;;;3.30;;
22995;SDS011;11664;49.774;8.650;2023-03-25T19:12:04;4.60;;;3.70;;
22995;SDS011;11664;49.774;8.650;2023-03-25T19:14:33;3.40;;;3.20;;
22995;SDS011;11664;49.774;8.650;2023-03-25T19:17:07;3.75;;;3.45;;
22995;SDS011;11664;49.774;8.650;2023-03-25T19:22:03;3.38;;;3.28;;
22995;SDS011;11664;49.774;8.650;2023-03-25T19:24:32;3.88;;;3.58;;
22995;SDS011;11664;49.774;8.650;2023-03-25T19:27:07;3.65;;;3.45;;
22995;SDS011;11664;49.774;8.650;2023-03-25T19:29:42;3.30;;;2.92;;
22995;SDS011;11664;49.774;8.650;2023-03-25T19:32:07;5.03;;;4.03;;
22995;SDS011;11664;49.774;8.650;2023-03-25T19:34:33;4.80;;;3.30;;
22995;SDS011;11664;49.774;8.650;2023-03-25T19:39:52;4.20;;;4.00;;
22995;SDS011;11664;49.774;8.650;2023-03-25T19:42:18;3.38;;;3.17;;
22995;SDS011;11664;49.774;8.650;2023-03-25T19:47:37;4.72;;;3.47;;
22995;SDS011;11664;49.774;8.650;2023-03-25T19:50:23;3.78;;;3.00;;
22995;SDS011;11664;49.774;8.650;2023-03-25T19:53:03;3.90;;;3.60;;
22995;SDS011;11664;49.774;8.650;2023-03-25T19:55:41;3.58;;;3.38;;
22995;SDS011;11664;49.774;8.650;2023-03-25T19:58:07;7.18;;;3.35;;
22995;SDS011;11664;49.774;8.650;2023-03-25T20:00:45;4.20;;;3.38;;
22995;SDS011;11664;49.774;8.650;2023-03-25T20:03:13;3.95;;;3.55;;
22995;SDS011;11664;49.774;8.650;2023-03-25T20:05:45;5.10;;;3.20;;
22995;SDS011;11664;49.774;8.650;2023-03-25T20:08:14;4.03;;;3.80;;
22995;SDS011;11664;49.774;8.650;2023-03-25T20:10:39;4.57;;;4.18;;
22995;SDS011;11664;49.774;8.650;2023-03-25T20:13:05;4.13;;;3.45;;
22995;SDS011;11664;49.774;8.650;2023-03-25T20:15:40;3.58;;;3.30;;
22995;SDS011;11664;49.774;8.650;2023-03-25T20:20:59;4.97;;;4.05;;
22995;SDS011;11664;49.774;8.650;2023-03-25T20:23:28;4.40;;;4.10;;
22995;SDS011;11664;49.774;8.650;2023-03-25T20:25:57;5.22;;;4.78;;